Time;durP1;ratioP1;P1;durP2;ratioP2;P2;SDS_P1;SDS_P2;PMS_P1;PMS_P2;Temp;Humidity;BMP_temperature;BMP_pressure;BME280_temperature;BME280_humidity;BME280_pressure;Samples;Min_cycle;Max_cycle;Signal;HPM_P1;HPM_P2
2023/10/01 00:00:09;;;;;;;;;15.25;13.50;;;;;;;;5139813;27;10473;-74
2023/10/01 00:02:34;;;;;;;;;13.75;11.50;;;;;;;;5117547;27;8750;-73
2023/10/01 00:04:59;;;;;;;;;9.25;9.00;;;;;;;;5123644;27;10568;-74
2023/10/01 00:07:25;;;;;;;;;12.75;12.75;;;;;;;;5123149;28;8804;-74
2023/10/01 00:09:50;;;;;;;;;19.00;12.25;;;;;;;;5138033;27;8824;-73
2023/10/01 00:12:15;;;;;;;;;15.50;10.25;;;;;;;;5133459;27;8903;-73
2023/10/01 00:14:41;;;;;;;;;16.25;13.00;;;;;;;;5124074;27;8799;-73
2023/10/01 00:17:06;;;;;;;;;11.00;11.00;;;;;;;;5142995;27;8799;-73
2023/10/01 00:19:33;;;;;;;;;13.00;9.00;;;;;;;;5128252;27;8797;-73
2023/10/01 00:21:58;;;;;;;;;14.25;9.50;;;;;;;;5133397;27;10136;-73
2023/10/01 00:24:23;;;;;;;;;12.75;8.25;;;;;;;;5122799;27;10389;-74
2023/10/01 00:26:48;;;;;;;;;9.75;9.50;;;;;;;;5123165;28;8819;-73
2023/10/01 00:29:13;;;;;;;;;14.75;10.25;;;;;;;;5122270;28;8837;-74
2023/10/01 00:31:39;;;;;;;;;19.50;13.00;;;;;;;;5138320;27;8797;-74
2023/10/01 00:34:07;;;;;;;;;8.75;8.75;;;;;;;;5136789;27;8815;-73
2023/10/01 00:36:32;;;;;;;;;10.25;9.25;;;;;;;;5139393;27;8795;-73
2023/10/01 00:38:57;;;;;;;;;11.00;7.75;;;;;;;;5142206;27;10694;-73
2023/10/01 00:41:23;;;;;;;;;10.50;9.50;;;;;;;;5140689;27;8821;-73
2023/10/01 00:43:48;;;;;;;;;14.00;10.25;;;;;;;;5122337;27;8861;-74
2023/10/01 00:46:13;;;;;;;;;16.25;12.00;;;;;;;;5123092;27;8795;-73
2023/10/01 00:48:39;;;;;;;;;15.25;11.00;;;;;;;;5139051;27;8796;-74
2023/10/01 00:51:07;;;;;;;;;9.25;8.75;;;;;;;;5132672;27;8820;-74
2023/10/01 00:53:33;;;;;;;;;12.00;12.00;;;;;;;;5132422;27;8709;-73
2023/10/01 00:55:59;;;;;;;;;12.75;9.75;;;;;;;;5141312;27;10331;-73
2023/10/01 00:58:24;;;;;;;;;14.00;12.50;;;;;;;;5129187;27;8748;-73
2023/10/01 01:00:50;;;;;;;;;15.00;10.75;;;;;;;;5129380;27;11057;-73
2023/10/01 01:03:19;;;;;;;;;11.50;8.75;;;;;;;;5122213;28;9237;-73
2023/10/01 01:05:57;;;;;;;;;15.25;11.00;;;;;;;;5128002;27;10444;-73
2023/10/01 01:08:28;;;;;;;;;14.00;13.00;;;;;;;;5129609;27;10769;-73
2023/10/01 01:10:54;;;;;;;;;16.25;11.50;;;;;;;;5107716;28;11189;-73
2023/10/01 01:13:19;;;;;;;;;14.75;11.50;;;;;;;;5108193;28;10627;-74
2023/10/01 01:15:46;;;;;;;;;16.25;12.75;;;;;;;;5124743;28;8801;-74
2023/10/01 01:18:13;;;;;;;;;10.00;10.00;;;;;;;;5127840;28;8748;-73
2023/10/01 01:20:43;;;;;;;;;13.50;10.75;;;;;;;;5139893;27;10914;-73
2023/10/01 01:23:14;;;;;;;;;19.25;13.25;;;;;;;;5149937;27;10698;-73
2023/10/01 01:25:39;;;;;;;;;13.50;11.25;;;;;;;;5147569;27;10732;-73
2023/10/01 01:28:12;;;;;;;;;20.00;10.25;;;;;;;;5149587;27;10630;-73
2023/10/01 01:30:41;;;;;;;;;16.50;13.50;;;;;;;;5148996;27;8792;-73
2023/10/01 01:33:07;;;;;;;;;13.75;10.25;;;;;;;;5149989;27;10712;-74
2023/10/01 01:35:35;;;;;;;;;15.50;12.00;;;;;;;;5150157;27;10338;-73
2023/10/01 01:38:02;;;;;;;;;16.50;14.25;;;;;;;;5150014;27;8800;-73
2023/10/01 01:40:40;;;;;;;;;16.75;13.00;;;;;;;;5138255;27;10958;-73
2023/10/01 01:43:22;;;;;;;;;18.00;14.50;;;;;;;;5127459;28;8794;-73
2023/10/01 01:45:56;;;;;;;;;13.25;11.25;;;;;;;;5129052;27;10721;-73
2023/10/01 01:48:25;;;;;;;;;17.75;14.00;;;;;;;;5128810;27;10684;-73
2023/10/01 01:50:54;;;;;;;;;11.75;11.00;;;;;;;;5128838;27;11789;-73
2023/10/01 01:53:19;;;;;;;;;16.25;13.25;;;;;;;;5112047;27;10674;-73
2023/10/01 01:55:45;;;;;;;;;15.00;13.25;;;;;;;;5121424;27;10762;-73
2023/10/01 01:58:10;;;;;;;;;16.00;14.00;;;;;;;;5149607;27;8890;-73
2023/10/01 02:00:42;;;;;;;;;16.25;12.00;;;;;;;;5144623;27;8812;-73
2023/10/01 02:03:10;;;;;;;;;17.00;12.25;;;;;;;;5129101;27;8802;-73
2023/10/01 02:05:41;;;;;;;;;20.25;13.75;;;;;;;;5125560;27;10809;-73
2023/10/01 02:08:23;;;;;;;;;16.75;13.25;;;;;;;;5125694;27;10830;-73
2023/10/01 02:10:50;;;;;;;;;10.50;10.00;;;;;;;;5124837;27;10903;-73
2023/10/01 02:13:17;;;;;;;;;13.75;10.50;;;;;;;;5125257;27;10631;-73
2023/10/01 02:15:43;;;;;;;;;16.50;14.50;;;;;;;;5123488;28;10691;-73
2023/10/01 02:18:09;;;;;;;;;18.50;14.25;;;;;;;;5125574;27;10724;-73
2023/10/01 02:20:35;;;;;;;;;14.75;13.00;;;;;;;;5130984;27;11077;-73
2023/10/01 02:23:03;;;;;;;;;19.00;14.25;;;;;;;;5134911;27;8787;-73
2023/10/01 02:25:38;;;;;;;;;20.75;16.75;;;;;;;;5123559;27;10747;-74
2023/10/01 02:28:15;;;;;;;;;20.75;14.75;;;;;;;;5122179;27;10695;-73
2023/10/01 02:30:41;;;;;;;;;16.75;14.00;;;;;;;;5124102;27;11105;-73
2023/10/01 02:33:17;;;;;;;;;16.75;13.50;;;;;;;;5125215;27;10797;-73
2023/10/01 02:35:42;;;;;;;;;20.75;17.75;;;;;;;;5124836;27;10791;-73
2023/10/01 02:38:36;;;;;;;;;19.50;15.75;;;;;;;;5122213;27;10918;-73
2023/10/01 02:40:57;;;;;;;;;16.75;14.00;;;;;;;;5103668;28;8762;-73
2023/10/01 02:43:26;;;;;;;;;16.75;13.00;;;;;;;;5104260;28;10884;-73
2023/10/01 02:45:51;;;;;;;;;13.00;12.00;;;;;;;;5138282;27;10740;-73
2023/10/01 02:48:17;;;;;;;;;25.50;15.25;;;;;;;;5145426;27;10872;-73
2023/10/01 02:50:52;;;;;;;;;18.75;17.25;;;;;;;;5137693;27;8857;-74
2023/10/01 02:53:21;;;;;;;;;17.25;15.75;;;;;;;;5124201;27;8813;-74
2023/10/01 02:55:47;;;;;;;;;25.00;16.75;;;;;;;;5144290;27;10755;-74
2023/10/01 02:58:20;;;;;;;;;24.75;18.25;;;;;;;;5145179;27;10966;-73
2023/10/01 03:00:46;;;;;;;;;21.00;18.75;;;;;;;;5144411;27;8869;-73
2023/10/01 03:03:14;;;;;;;;;17.75;16.00;;;;;;;;5127166;27;10635;-73
2023/10/01 03:05:42;;;;;;;;;16.50;15.00;;;;;;;;5139891;27;10969;-73
2023/10/01 03:08:25;;;;;;;;;24.25;16.75;;;;;;;;5144415;27;10886;-73
2023/10/01 03:10:52;;;;;;;;;17.50;17.00;;;;;;;;5143118;27;11095;-73
2023/10/01 03:13:19;;;;;;;;;16.75;8.25;;;;;;;;5144675;27;10859;-73
2023/10/01 03:15:47;;;;;;;;;19.00;16.50;;;;;;;;5143210;27;11859;-73
2023/10/01 03:28:26;;;;;;;;;17.50;15.00;;;;;;;;5142272;27;11034;-74
2023/10/01 03:31:08;;;;;;;;;24.50;14.00;;;;;;;;5124119;27;11054;-73
2023/10/01 03:33:33;;;;;;;;;19.75;16.00;;;;;;;;5122080;27;11154;-73
2023/10/01 03:35:59;;;;;;;;;14.50;13.00;;;;;;;;5119772;27;11675;-73
2023/10/01 03:38:24;;;;;;;;;20.00;15.00;;;;;;;;5122412;27;8795;-73
2023/10/01 03:41:08;;;;;;;;;17.50;16.00;;;;;;;;5124011;27;8799;-73
2023/10/01 03:43:35;;;;;;;;;20.00;16.00;;;;;;;;5123796;27;9713;-73
2023/10/01 03:46:15;;;;;;;;;20.00;14.50;;;;;;;;5127382;27;11182;-73
2023/10/01 03:48:58;;;;;;;;;20.00;15.25;;;;;;;;5127678;27;10759;-73
2023/10/01 03:52:00;;;;;;;;;21.75;18.50;;;;;;;;5121296;27;10954;-73
2023/10/01 03:54:51;;;;;;;;;15.75;11.75;;;;;;;;5122293;27;10996;-73
2023/10/01 03:57:16;;;;;;;;;20.00;16.50;;;;;;;;5124726;27;10664;-73
2023/10/01 03:59:51;;;;;;;;;17.50;14.00;;;;;;;;5125133;27;11469;-73
2023/10/01 04:02:42;;;;;;;;;16.75;13.50;;;;;;;;5119941;28;11238;-73
2023/10/01 04:05:21;;;;;;;;;12.50;12.25;;;;;;;;5116855;27;11017;-73
2023/10/01 04:07:48;;;;;;;;;17.50;14.00;;;;;;;;5129504;27;10856;-73
2023/10/01 04:10:13;;;;;;;;;16.75;14.00;;;;;;;;5131462;27;11197;-73
2023/10/01 04:12:44;;;;;;;;;16.00;9.00;;;;;;;;5131019;27;11156;-73
2023/10/01 04:15:10;;;;;;;;;16.25;10.25;;;;;;;;5129858;27;8716;-73
2023/10/01 04:17:35;;;;;;;;;16.00;13.75;;;;;;;;5123353;27;11048;-73
2023/10/01 04:20:01;;;;;;;;;16.00;11.25;;;;;;;;5128124;27;8769;-73
2023/10/01 04:22:36;;;;;;;;;17.00;14.00;;;;;;;;5124258;27;8755;-73
2023/10/01 04:25:01;;;;;;;;;19.25;14.50;;;;;;;;5128952;27;10861;-73
2023/10/01 04:27:34;;;;;;;;;18.75;14.50;;;;;;;;5143957;27;11079;-73
2023/10/01 04:30:00;;;;;;;;;13.50;12.50;;;;;;;;5132586;27;8737;-73
2023/10/01 04:32:27;;;;;;;;;17.50;12.50;;;;;;;;5122387;27;11230;-73
2023/10/01 04:34:58;;;;;;;;;16.75;13.75;;;;;;;;5125246;27;8738;-73
2023/10/01 04:37:36;;;;;;;;;14.50;14.00;;;;;;;;5123278;27;11162;-73
2023/10/01 04:40:06;;;;;;;;;16.00;12.75;;;;;;;;5123263;27;10904;-73
2023/10/01 04:42:32;;;;;;;;;17.25;12.25;;;;;;;;5121522;28;10699;-73
2023/10/01 04:44:57;;;;;;;;;22.25;15.00;;;;;;;;5121320;27;10936;-73
2023/10/01 04:47:31;;;;;;;;;15.50;14.25;;;;;;;;5141796;27;8785;-73
2023/10/01 04:49:56;;;;;;;;;19.75;14.75;;;;;;;;5142096;27;8780;-73
2023/10/01 04:52:24;;;;;;;;;13.00;9.00;;;;;;;;5133695;27;11230;-73
2023/10/01 04:54:49;;;;;;;;;17.25;14.00;;;;;;;;5121193;27;8770;-73
2023/10/01 04:57:16;;;;;;;;;13.00;10.00;;;;;;;;5120269;28;11000;-73
2023/10/01 04:59:56;;;;;;;;;19.75;12.50;;;;;;;;5121344;27;8799;-73
2023/10/01 05:02:21;;;;;;;;;17.75;12.50;;;;;;;;5115974;27;11057;-73
2023/10/01 05:04:47;;;;;;;;;14.50;10.00;;;;;;;;5125659;27;11083;-73
2023/10/01 05:07:15;;;;;;;;;19.75;14.00;;;;;;;;5143133;27;8796;-73
2023/10/01 05:09:41;;;;;;;;;16.50;11.50;;;;;;;;5130548;27;8869;-73
2023/10/01 05:12:08;;;;;;;;;8.75;8.75;;;;;;;;5131530;27;11014;-73
2023/10/01 05:14:52;;;;;;;;;20.25;15.00;;;;;;;;5126710;27;11192;-73
2023/10/01 05:17:17;;;;;;;;;15.50;10.75;;;;;;;;5143175;27;11070;-73
2023/10/01 05:19:43;;;;;;;;;17.25;12.75;;;;;;;;5141015;27;11070;-73
2023/10/01 05:22:08;;;;;;;;;18.50;15.75;;;;;;;;5142387;27;8815;-73
2023/10/01 05:24:38;;;;;;;;;20.25;14.75;;;;;;;;5140480;27;8881;-73
2023/10/01 05:27:18;;;;;;;;;17.50;12.50;;;;;;;;5122055;27;8827;-73
2023/10/01 05:29:45;;;;;;;;;16.75;14.50;;;;;;;;5100258;28;11118;-73
2023/10/01 05:32:13;;;;;;;;;17.75;13.50;;;;;;;;5101703;28;11207;-73
2023/10/01 05:34:42;;;;;;;;;19.50;12.00;;;;;;;;5116625;27;11089;-73
2023/10/01 05:37:12;;;;;;;;;14.75;12.25;;;;;;;;5121493;28;10986;-73
2023/10/01 05:39:55;;;;;;;;;15.50;11.25;;;;;;;;5123722;27;11054;-73
2023/10/01 05:42:21;;;;;;;;;18.75;14.50;;;;;;;;5126098;27;11070;-73
2023/10/01 05:44:47;;;;;;;;;13.50;12.25;;;;;;;;5134205;27;11090;-73
2023/10/01 05:47:12;;;;;;;;;19.50;16.50;;;;;;;;5125755;27;11043;-73
2023/10/01 05:49:49;;;;;;;;;16.25;12.00;;;;;;;;5125326;27;8811;-73
2023/10/01 05:52:14;;;;;;;;;17.50;14.00;;;;;;;;5144425;27;8854;-73
2023/10/01 05:54:50;;;;;;;;;17.25;13.25;;;;;;;;5132105;27;10955;-73
2023/10/01 05:57:16;;;;;;;;;15.00;12.00;;;;;;;;5106667;27;9183;-73
2023/10/01 05:59:41;;;;;;;;;15.25;12.25;;;;;;;;5123849;27;10992;-73
2023/10/01 06:02:07;;;;;;;;;18.50;13.00;;;;;;;;5121680;27;8858;-73
2023/10/01 06:04:32;;;;;;;;;8.50;8.25;;;;;;;;5146136;27;8784;-73
2023/10/01 06:07:02;;;;;;;;;15.25;11.25;;;;;;;;5129151;27;8787;-72
2023/10/01 06:09:33;;;;;;;;;15.75;13.50;;;;;;;;5122395;27;8789;-73
2023/10/01 06:12:03;;;;;;;;;15.75;13.75;;;;;;;;5123945;28;10990;-73
2023/10/01 06:14:41;;;;;;;;;12.75;11.00;;;;;;;;5123656;28;11074;-73
2023/10/01 06:17:08;;;;;;;;;20.75;15.00;;;;;;;;5122674;28;10837;-73
2023/10/01 06:19:33;;;;;;;;;18.25;16.00;;;;;;;;5123921;27;12937;-73
2023/10/01 06:22:12;;;;;;;;;22.00;20.75;;;;;;;;5124085;28;11502;-73
2023/10/01 06:24:37;;;;;;;;;15.75;13.25;;;;;;;;5130833;27;8729;-73
2023/10/01 06:27:03;;;;;;;;;16.75;13.75;;;;;;;;5123040;27;11034;-73
2023/10/01 06:29:28;;;;;;;;;15.75;12.00;;;;;;;;5132259;27;8804;-73
2023/10/01 06:34:26;;;;;;;;;16.00;14.25;;;;;;;;5144545;27;8807;-73
2023/10/01 06:36:56;;;;;;;;;17.75;16.25;;;;;;;;5146043;27;10571;-73
2023/10/01 06:39:25;;;;;;;;;14.75;13.50;;;;;;;;5141588;27;11041;-73
2023/10/01 06:41:52;;;;;;;;;21.00;12.25;;;;;;;;5137938;27;11751;-73
2023/10/01 06:44:19;;;;;;;;;21.50;14.50;;;;;;;;5135050;27;10969;-74
2023/10/01 06:46:44;;;;;;;;;21.75;18.75;;;;;;;;5134765;27;11009;-74
2023/10/01 06:49:09;;;;;;;;;23.75;15.25;;;;;;;;5134352;27;11009;-77
2023/10/01 06:51:45;;;;;;;;;13.25;13.00;;;;;;;;5132138;27;8812;-76
2023/10/01 06:54:10;;;;;;;;;21.50;17.75;;;;;;;;5127324;27;8708;-76
2023/10/01 06:56:37;;;;;;;;;16.25;14.50;;;;;;;;5122328;28;11463;-78
2023/10/01 07:01:35;;;;;;;;;22.00;16.75;;;;;;;;5124108;28;11020;-77
2023/10/01 07:04:05;;;;;;;;;18.75;18.00;;;;;;;;5131838;27;10950;-76
2023/10/01 07:06:36;;;;;;;;;15.25;12.00;;;;;;;;5124317;27;10826;-77
2023/10/01 07:09:03;;;;;;;;;15.75;14.00;;;;;;;;5123428;27;10736;-76
2023/10/01 07:11:29;;;;;;;;;19.75;15.00;;;;;;;;5123902;28;11053;-75
2023/10/01 07:13:55;;;;;;;;;13.50;13.50;;;;;;;;5128834;27;10811;-76
2023/10/01 07:16:35;;;;;;;;;20.50;14.50;;;;;;;;5144849;27;8769;-76
2023/10/01 07:19:02;;;;;;;;;15.00;12.00;;;;;;;;5134666;27;10902;-72
2023/10/01 07:21:28;;;;;;;;;19.00;14.75;;;;;;;;5135517;27;10651;-80
2023/10/01 07:23:54;;;;;;;;;18.75;11.25;;;;;;;;5134488;27;10711;-80
2023/10/01 07:26:19;;;;;;;;;17.50;15.25;;;;;;;;5121857;27;8866;-80
2023/10/01 07:28:52;;;;;;;;;16.75;14.00;;;;;;;;5129994;27;8906;-80
2023/10/01 07:31:22;;;;;;;;;13.75;12.75;;;;;;;;5126600;27;8811;-79
2023/10/01 07:33:47;;;;;;;;;11.00;8.50;;;;;;;;5129217;27;10355;-80
2023/10/01 07:36:17;;;;;;;;;15.00;10.50;;;;;;;;5126461;27;11027;-79
2023/10/01 07:38:49;;;;;;;;;16.50;10.75;;;;;;;;5126595;27;8788;-80
2023/10/01 07:41:16;;;;;;;;;14.25;9.75;;;;;;;;5132933;27;10307;-80
2023/10/01 07:43:42;;;;;;;;;15.00;11.25;;;;;;;;5121270;28;10207;-72
2023/10/01 07:46:08;;;;;;;;;12.50;9.75;;;;;;;;5122803;27;10235;-73
2023/10/01 07:48:33;;;;;;;;;12.75;10.00;;;;;;;;5123804;27;10462;-73
2023/10/01 07:51:02;;;;;;;;;16.50;11.50;;;;;;;;5132104;27;9633;-73
2023/10/01 07:53:32;;;;;;;;;13.75;10.50;;;;;;;;5138185;27;8773;-75
2023/10/01 07:56:15;;;;;;;;;15.00;9.25;;;;;;;;5139129;27;10169;-73
2023/10/01 07:58:47;;;;;;;;;16.50;10.50;;;;;;;;5117326;27;9900;-74
2023/10/01 08:03:58;;;;;;;;;12.00;11.00;;;;;;;;5123017;27;10131;-74
2023/10/01 08:06:41;;;;;;;;;13.00;11.50;;;;;;;;5125037;27;10217;-77
2023/10/01 08:09:12;;;;;;;;;18.50;12.75;;;;;;;;5135802;27;10145;-73
2023/10/01 08:15:15;;;;;;;;;11.75;9.50;;;;;;;;5056225;28;10255;-79
2023/10/01 08:17:34;;;;;;;;;13.50;11.75;;;;;;;;5057698;28;10243;-78
2023/10/01 08:20:18;;;;;;;;;13.00;13.00;;;;;;;;5052608;28;10329;-78
2023/10/01 08:23:09;;;;;;;;;11.00;10.00;;;;;;;;5048074;28;10613;-79
2023/10/01 08:25:29;;;;;;;;;15.00;9.50;;;;;;;;5048504;28;10514;-79
2023/10/01 08:28:43;;;;;;;;;14.75;9.25;;;;;;;;5058334;28;10388;-79
2023/10/01 08:30:49;;;;;;;;;8.00;7.00;;;;;;;;5053472;28;10313;-78
2023/10/01 08:33:22;;;;;;;;;9.50;8.00;;;;;;;;5056626;28;10548;-78
2023/10/01 08:36:01;;;;;;;;;9.75;8.25;;;;;;;;5059537;28;8797;-78
2023/10/01 08:38:34;;;;;;;;;12.50;9.25;;;;;;;;5060698;28;10309;-78
2023/10/01 08:41:02;;;;;;;;;16.00;7.75;;;;;;;;5059435;28;10341;-78
2023/10/01 08:43:31;;;;;;;;;11.25;9.75;;;;;;;;5063127;28;10602;-78
2023/10/01 08:46:00;;;;;;;;;10.75;10.25;;;;;;;;5104217;27;10346;-78
2023/10/01 08:48:35;;;;;;;;;13.75;9.25;;;;;;;;5125374;27;10253;-79
2023/10/01 08:51:08;;;;;;;;;9.75;8.25;;;;;;;;5120018;27;10322;-78
2023/10/01 08:53:36;;;;;;;;;13.25;8.25;;;;;;;;5127216;27;10436;-77
2023/10/01 08:56:04;;;;;;;;;6.75;6.25;;;;;;;;5118631;27;10036;-77
2023/10/01 08:58:41;;;;;;;;;9.50;8.00;;;;;;;;5115239;27;10263;-77
2023/10/01 09:01:14;;;;;;;;;12.00;7.75;;;;;;;;5131093;27;10036;-77
2023/10/01 09:03:39;;;;;;;;;11.00;8.00;;;;;;;;5139665;27;10353;-77
2023/10/01 09:06:09;;;;;;;;;9.75;6.75;;;;;;;;5130812;27;10187;-76
2023/10/01 09:08:43;;;;;;;;;6.00;6.00;;;;;;;;5129954;27;8807;-76
2023/10/01 09:11:13;;;;;;;;;9.75;7.75;;;;;;;;5138714;27;10162;-76
2023/10/01 09:13:46;;;;;;;;;11.75;7.25;;;;;;;;5128095;27;10261;-76
2023/10/01 09:16:11;;;;;;;;;5.50;4.50;;;;;;;;5125682;27;10045;-76
2023/10/01 09:18:37;;;;;;;;;6.75;6.00;;;;;;;;5127578;27;10019;-79
2023/10/01 09:21:09;;;;;;;;;5.25;4.75;;;;;;;;5124857;27;8831;-76
2023/10/01 09:23:56;;;;;;;;;11.00;6.50;;;;;;;;5132758;27;10278;-76
2023/10/01 09:26:53;;;;;;;;;8.75;5.75;;;;;;;;5133438;27;10045;-75
2023/10/01 09:29:21;;;;;;;;;8.25;6.00;;;;;;;;5127944;27;10027;-76
2023/10/01 09:32:21;;;;;;;;;6.25;5.25;;;;;;;;5132839;27;10092;-76
2023/10/01 09:34:46;;;;;;;;;7.25;5.75;;;;;;;;5132604;27;10185;-75
2023/10/01 09:37:12;;;;;;;;;7.75;7.25;;;;;;;;5128054;27;10043;-77
2023/10/01 09:39:42;;;;;;;;;10.25;5.75;;;;;;;;5130341;27;10235;-75
2023/10/01 09:42:22;;;;;;;;;5.50;5.50;;;;;;;;5127247;27;9659;-75
2023/10/01 09:44:48;;;;;;;;;8.25;5.75;;;;;;;;5130313;27;10095;-75
2023/10/01 09:47:14;;;;;;;;;11.50;6.75;;;;;;;;5125855;27;9907;-75
2023/10/01 09:49:41;;;;;;;;;15.25;9.50;;;;;;;;5125654;27;10126;-76
2023/10/01 09:52:06;;;;;;;;;8.25;6.50;;;;;;;;5126311;27;8804;-76
2023/10/01 09:54:41;;;;;;;;;11.75;6.25;;;;;;;;5121863;27;10133;-75
2023/10/01 09:57:08;;;;;;;;;4.00;2.75;;;;;;;;5125380;27;8823;-73
2023/10/01 09:59:39;;;;;;;;;4.25;4.25;;;;;;;;5127967;27;9868;-76
2023/10/01 10:02:04;;;;;;;;;9.50;8.25;;;;;;;;5124659;27;9829;-76
2023/10/01 10:04:34;;;;;;;;;7.25;5.00;;;;;;;;5127558;27;10254;-76
2023/10/01 10:07:02;;;;;;;;;6.50;5.75;;;;;;;;5127942;27;8787;-75
2023/10/01 10:09:30;;;;;;;;;9.00;5.00;;;;;;;;5123034;27;9981;-74
2023/10/01 10:11:55;;;;;;;;;6.50;6.50;;;;;;;;5124157;27;10042;-74
2023/10/01 10:14:27;;;;;;;;;10.50;6.50;;;;;;;;5133052;27;10161;-76
2023/10/01 10:16:58;;;;;;;;;7.25;5.75;;;;;;;;5133137;27;8733;-73
2023/10/01 10:19:24;;;;;;;;;9.25;5.25;;;;;;;;5129668;27;9870;-76
2023/10/01 10:24:35;;;;;;;;;7.50;6.50;;;;;;;;5131433;27;10070;-74
2023/10/01 10:27:06;;;;;;;;;10.25;3.75;;;;;;;;5136409;27;9961;-78
2023/10/01 10:29:55;;;;;;;;;2.75;2.25;;;;;;;;5126135;27;9843;-75
2023/10/01 10:32:24;;;;;;;;;8.50;4.00;;;;;;;;5135742;27;9667;-74
2023/10/01 10:35:04;;;;;;;;;14.25;8.25;;;;;;;;5128980;27;9861;-75
2023/10/01 10:37:38;;;;;;;;;7.25;4.75;;;;;;;;5130410;27;9852;-78
2023/10/01 10:43:02;;;;;;;;;5.00;5.00;;;;;;;;5115218;27;9774;-76
2023/10/01 10:45:31;;;;;;;;;4.75;3.75;;;;;;;;5123837;27;10425;-74
2023/10/01 10:48:03;;;;;;;;;6.00;5.00;;;;;;;;5128057;27;9699;-74
2023/10/01 10:50:45;;;;;;;;;9.75;7.25;;;;;;;;5128223;27;9899;-72
2023/10/01 10:53:18;;;;;;;;;15.00;9.00;;;;;;;;5134730;27;9754;-74
2023/10/01 10:55:52;;;;;;;;;14.75;10.75;;;;;;;;5138241;27;9867;-74
2023/10/01 10:58:19;;;;;;;;;7.25;6.25;;;;;;;;5124436;27;9968;-71
2023/10/01 11:00:45;;;;;;;;;6.00;3.33;;;;;;;;5131650;27;9803;-77
2023/10/01 11:03:11;;;;;;;;;3.50;3.50;;;;;;;;5128525;27;9563;-72
2023/10/01 11:05:52;;;;;;;;;6.00;3.00;;;;;;;;5125844;27;8741;-78
2023/10/01 11:08:27;;;;;;;;;5.50;5.50;;;;;;;;5125074;27;8865;-74
2023/10/01 11:10:56;;;;;;;;;7.00;4.33;;;;;;;;5126208;27;9694;-76
2023/10/01 11:13:37;;;;;;;;;6.67;5.00;;;;;;;;5129709;27;9404;-75
2023/10/01 11:16:13;;;;;;;;;9.50;4.75;;;;;;;;5123478;27;9569;-73
2023/10/01 11:18:41;;;;;;;;;6.25;5.00;;;;;;;;5137670;27;9753;-73
2023/10/01 11:21:10;;;;;;;;;4.25;4.25;;;;;;;;5142457;27;9424;-73
2023/10/01 11:23:36;;;;;;;;;7.67;5.00;;;;;;;;5143573;27;9575;-73
2023/10/01 11:26:26;;;;;;;;;4.75;4.50;;;;;;;;5140205;27;10182;-72
2023/10/01 11:28:51;;;;;;;;;5.00;3.67;;;;;;;;5135925;27;8752;-73
2023/10/01 11:31:23;;;;;;;;;6.00;5.33;;;;;;;;5135599;27;9456;-77
2023/10/01 11:34:05;;;;;;;;;5.33;3.67;;;;;;;;5125524;27;8937;-73
2023/10/01 11:36:36;;;;;;;;;6.33;4.00;;;;;;;;5130554;27;9474;-74
2023/10/01 11:39:03;;;;;;;;;8.00;5.00;;;;;;;;5128856;27;9427;-70
2023/10/01 11:41:52;;;;;;;;;6.67;3.67;;;;;;;;5129476;27;9256;-76
2023/10/01 11:44:25;;;;;;;;;8.00;4.33;;;;;;;;5128786;27;9570;-71
2023/10/01 11:46:59;;;;;;;;;4.00;3.67;;;;;;;;5125602;27;9400;-71
2023/10/01 11:49:37;;;;;;;;;9.33;5.00;;;;;;;;5132152;27;9396;-72
2023/10/01 11:52:21;;;;;;;;;10.00;4.00;;;;;;;;5120023;27;9286;-71
2023/10/01 11:54:53;;;;;;;;;7.67;3.67;;;;;;;;5125995;27;9375;-73
2023/10/01 11:57:22;;;;;;;;;4.00;4.00;;;;;;;;5123585;28;9466;-72
2023/10/01 11:59:55;;;;;;;;;4.33;4.33;;;;;;;;5124730;27;9467;-72
2023/10/01 12:02:29;;;;;;;;;9.67;6.00;;;;;;;;5134104;27;9286;-74
2023/10/01 12:04:59;;;;;;;;;2.00;2.00;;;;;;;;5140693;27;9326;-71
2023/10/01 12:07:26;;;;;;;;;9.33;5.00;;;;;;;;5123387;27;9420;-69
2023/10/01 12:09:53;;;;;;;;;4.67;4.67;;;;;;;;5124433;27;9221;-74
2023/10/01 12:12:19;;;;;;;;;7.67;4.33;;;;;;;;5121376;27;9132;-72
2023/10/01 12:17:44;;;;;;;;;5.00;3.67;;;;;;;;5088575;27;9211;-73
2023/10/01 12:20:21;;;;;;;;;9.33;2.67;;;;;;;;5130699;27;9226;-74
2023/10/01 12:23:03;;;;;;;;;6.67;4.00;;;;;;;;5138963;27;9204;-71
2023/10/01 12:25:42;;;;;;;;;6.00;4.67;;;;;;;;5127428;27;9141;-72
2023/10/01 12:28:15;;;;;;;;;4.00;3.67;;;;;;;;5128820;27;9292;-76
2023/10/01 12:30:40;;;;;;;;;6.00;4.00;;;;;;;;5127231;27;9024;-76
2023/10/01 12:33:05;;;;;;;;;7.33;4.33;;;;;;;;5129526;27;9020;-76
2023/10/01 12:35:34;;;;;;;;;4.33;3.00;;;;;;;;5120501;27;8818;-72
2023/10/01 12:40:38;;;;;;;;;6.67;4.67;;;;;;;;5132487;27;9145;-75
2023/10/01 12:43:32;;;;;;;;;6.33;5.33;;;;;;;;5141709;27;9127;-73
2023/10/01 12:45:50;;;;;;;;;7.00;3.67;;;;;;;;5125235;27;8781;-74
2023/10/01 12:48:20;;;;;;;;;9.75;6.75;;;;;;;;5125021;27;8968;-72
2023/10/01 12:50:59;;;;;;;;;4.00;4.00;;;;;;;;5126816;27;8870;-71
2023/10/01 12:53:25;;;;;;;;;6.50;4.25;;;;;;;;5127719;27;8800;-73
2023/10/01 12:55:53;;;;;;;;;8.67;5.67;;;;;;;;5124231;27;8817;-73
2023/10/01 12:58:20;;;;;;;;;5.75;4.25;;;;;;;;5143305;27;8786;-73
2023/10/01 13:00:46;;;;;;;;;12.50;6.00;;;;;;;;5122760;27;8780;-72
2023/10/01 13:03:17;;;;;;;;;4.00;4.00;;;;;;;;5125949;27;8815;-74
2023/10/01 13:05:44;;;;;;;;;4.25;4.25;;;;;;;;5141149;27;8725;-75
2023/10/01 13:08:11;;;;;;;;;5.25;4.00;;;;;;;;5126154;27;8902;-75
2023/10/01 13:10:37;;;;;;;;;3.50;3.50;;;;;;;;5128951;27;8713;-75
2023/10/01 13:13:05;;;;;;;;;9.00;6.25;;;;;;;;5131342;27;9813;-77
2023/10/01 13:15:33;;;;;;;;;13.67;11.67;;;;;;;;5141891;27;8717;-81
2023/10/01 13:18:04;;;;;;;;;21.00;15.67;;;;;;;;5133617;27;8908;-77
2023/10/01 13:20:29;;;;;;;;;11.50;6.00;;;;;;;;5122998;27;9087;-77
2023/10/01 13:23:08;;;;;;;;;5.00;5.00;;;;;;;;5130031;27;8822;-75
2023/10/01 13:25:39;;;;;;;;;5.00;4.00;;;;;;;;5123042;27;8791;-75
2023/10/01 13:28:04;;;;;;;;;11.00;6.25;;;;;;;;5124354;27;8753;-76
2023/10/01 13:30:30;;;;;;;;;7.67;7.00;;;;;;;;5134214;27;8872;-79
2023/10/01 13:33:14;;;;;;;;;8.25;6.25;;;;;;;;5140013;27;8830;-78
2023/10/01 13:35:58;;;;;;;;;6.00;6.00;;;;;;;;5132304;27;8891;-78
2023/10/01 13:38:27;;;;;;;;;6.25;4.00;;;;;;;;5126282;27;8889;-78
2023/10/01 14:11:02;;;;;;;;;5.50;4.00;;;;;;;;5086066;28;8759;-78
2023/10/01 14:13:34;;;;;;;;;5.00;3.33;;;;;;;;5092202;28;8848;-78
2023/10/01 14:16:16;;;;;;;;;5.50;4.75;;;;;;;;5060041;28;8808;-78
2023/10/01 14:18:53;;;;;;;;;4.00;3.75;;;;;;;;5082822;28;9680;-78
2023/10/01 14:21:21;;;;;;;;;6.75;4.25;;;;;;;;5091487;28;8967;-78
2023/10/01 14:23:46;;;;;;;;;5.25;4.25;;;;;;;;5086706;28;8752;-78
2023/10/01 14:26:13;;;;;;;;;7.33;6.00;;;;;;;;5084173;28;8959;-76
2023/10/01 14:28:39;;;;;;;;;4.50;4.25;;;;;;;;5068657;28;8809;-76
2023/10/01 14:31:07;;;;;;;;;6.00;3.67;;;;;;;;5064420;28;10128;-76
2023/10/01 14:33:32;;;;;;;;;8.50;4.00;;;;;;;;5080964;28;8859;-76
2023/10/01 14:36:03;;;;;;;;;2.67;2.33;;;;;;;;5097444;28;9075;-77
2023/10/01 14:38:42;;;;;;;;;7.50;5.25;;;;;;;;5081429;28;8779;-78
2023/10/01 14:41:15;;;;;;;;;4.50;3.25;;;;;;;;5081435;28;8797;-76
2023/10/01 14:43:48;;;;;;;;;5.25;4.00;;;;;;;;5127141;27;8727;-77
2023/10/01 14:46:13;;;;;;;;;4.75;3.00;;;;;;;;5118495;27;8756;-77
2023/10/01 14:48:39;;;;;;;;;6.00;4.67;;;;;;;;5113314;27;9552;-76
2023/10/01 14:51:05;;;;;;;;;4.67;4.33;;;;;;;;5124296;27;8794;-77
2023/10/01 14:53:36;;;;;;;;;5.67;3.67;;;;;;;;5124791;27;11493;-78
2023/10/01 14:56:04;;;;;;;;;5.00;3.25;;;;;;;;5121581;27;8875;-79
2023/10/01 14:58:31;;;;;;;;;7.25;4.25;;;;;;;;5117812;27;8779;-80
2023/10/01 15:00:57;;;;;;;;;2.75;2.75;;;;;;;;5121589;27;9261;-79
2023/10/01 15:03:33;;;;;;;;;8.50;4.25;;;;;;;;5123247;27;8806;-79
2023/10/01 15:05:59;;;;;;;;;3.00;3.00;;;;;;;;5113558;27;8795;-78
2023/10/01 15:08:28;;;;;;;;;2.33;2.33;;;;;;;;5121413;27;8820;-78
2023/10/01 15:10:54;;;;;;;;;3.25;2.25;;;;;;;;5126657;27;8913;-79
2023/10/01 15:13:33;;;;;;;;;6.00;3.00;;;;;;;;5125511;27;8799;-82
2023/10/01 15:16:02;;;;;;;;;4.50;4.25;;;;;;;;5131380;27;8721;-77
2023/10/01 15:18:27;;;;;;;;;3.75;3.75;;;;;;;;5124087;27;8795;-79
2023/10/01 15:20:54;;;;;;;;;5.00;5.00;;;;;;;;5122344;27;10015;-78
2023/10/01 15:23:19;;;;;;;;;7.00;5.50;;;;;;;;5124858;27;8704;-78
2023/10/01 15:25:45;;;;;;;;;4.00;4.00;;;;;;;;5125649;27;8837;-77
2023/10/01 15:28:15;;;;;;;;;5.00;5.00;;;;;;;;5123803;27;8801;-78
2023/10/01 15:30:44;;;;;;;;;7.75;4.75;;;;;;;;5123647;27;11377;-75
2023/10/01 15:33:15;;;;;;;;;6.50;4.25;;;;;;;;5133601;27;8800;-77
2023/10/01 15:35:51;;;;;;;;;3.75;3.75;;;;;;;;5125957;27;9729;-77
2023/10/01 15:38:30;;;;;;;;;3.25;2.25;;;;;;;;5135743;27;8820;-77
2023/10/01 15:40:55;;;;;;;;;9.25;4.50;;;;;;;;5139189;27;8793;-76
2023/10/01 15:43:21;;;;;;;;;5.33;3.33;;;;;;;;5133502;27;8803;-76
2023/10/01 15:45:49;;;;;;;;;4.67;4.67;;;;;;;;5138851;27;8819;-76
2023/10/01 15:48:17;;;;;;;;;8.25;4.00;;;;;;;;5126349;27;8732;-78
2023/10/01 15:50:49;;;;;;;;;6.00;3.50;;;;;;;;5120612;27;8897;-75
2023/10/01 15:53:17;;;;;;;;;6.25;5.25;;;;;;;;5124602;27;8880;-75
2023/10/01 15:55:55;;;;;;;;;8.50;4.50;;;;;;;;5124314;27;8793;-75